sensor_id;sensor_type;location;lat;lon;timestamp;P1;durP1;ratioP1;P2;durP2;ratioP2
29934;SDS011;19905;53.370;-6.314;2023-02-02T00:01:47;8.30;;;1.75;;
29934;SDS011;19905;53.370;-6.314;2023-02-02T00:04:20;7.97;;;2.03;;
29934;SDS011;19905;53.370;-6.314;2023-02-02T00:06:50;7.20;;;2.10;;
29934;SDS011;19905;53.370;-6.314;2023-02-02T00:09:19;9.57;;;2.13;;
29934;SDS011;19905;53.370;-6.314;2023-02-02T00:11:48;7.07;;;1.98;;
29934;SDS011;19905;53.370;-6.314;2023-02-02T00:14:20;7.18;;;1.73;;
29934;SDS011;19905;53.370;-6.314;2023-02-02T00:16:50;5.35;;;2.00;;
29934;SDS011;19905;53.370;-6.314;2023-02-02T00:19:22;10.10;;;2.13;;
29934;SDS011;19905;53.370;-6.314;2023-02-02T00:21:52;10.68;;;2.50;;
29934;SDS011;19905;53.370;-6.314;2023-02-02T00:24:21;7.63;;;2.45;;
29934;SDS011;19905;53.370;-6.314;2023-02-02T00:26:51;7.15;;;2.20;;
29934;SDS011;19905;53.370;-6.314;2023-02-02T00:29:25;5.35;;;1.80;;
29934;SDS011;19905;53.370;-6.314;2023-02-02T00:31:54;9.10;;;2.65;;
29934;SDS011;19905;53.370;-6.314;2023-02-02T00:34:25;6.60;;;2.47;;
29934;SDS011;19905;53.370;-6.314;2023-02-02T00:36:53;8.60;;;2.40;;
29934;SDS011;19905;53.370;-6.314;2023-02-02T00:39:22;6.55;;;2.15;;
29934;SDS011;19905;53.370;-6.314;2023-02-02T00:41:54;7.03;;;2.20;;
29934;SDS011;19905;53.370;-6.314;2023-02-02T00:44:23;5.60;;;2.35;;
29934;SDS011;19905;53.370;-6.314;2023-02-02T00:47:20;10.65;;;2.78;;
29934;SDS011;19905;53.370;-6.314;2023-02-02T00:49:50;6.45;;;2.17;;
29934;SDS011;19905;53.370;-6.314;2023-02-02T00:52:19;8.52;;;2.67;;
29934;SDS011;19905;53.370;-6.314;2023-02-02T00:54:48;4.50;;;2.20;;
29934;SDS011;19905;53.370;-6.314;2023-02-02T00:57:16;10.20;;;2.67;;
29934;SDS011;19905;53.370;-6.314;2023-02-02T00:59:50;6.80;;;2.25;;
29934;SDS011;19905;53.370;-6.314;2023-02-02T01:02:18;7.38;;;2.42;;
29934;SDS011;19905;53.370;-6.314;2023-02-02T01:04:47;8.30;;;2.42;;
29934;SDS011;19905;53.370;-6.314;2023-02-02T01:07:18;5.63;;;2.58;;
29934;SDS011;19905;53.370;-6.314;2023-02-02T01:09:46;6.43;;;2.13;;
29934;SDS011;19905;53.370;-6.314;2023-02-02T01:12:15;6.18;;;2.15;;
29934;SDS011;19905;53.370;-6.314;2023-02-02T01:14:44;9.88;;;2.53;;
29934;SDS011;19905;53.370;-6.314;2023-02-02T01:17:12;8.70;;;2.30;;
29934;SDS011;19905;53.370;-6.314;2023-02-02T01:19:41;6.40;;;2.30;;
29934;SDS011;19905;53.370;-6.314;2023-02-02T01:22:10;7.07;;;2.40;;
29934;SDS011;19905;53.370;-6.314;2023-02-02T01:24:40;7.65;;;2.08;;
29934;SDS011;19905;53.370;-6.314;2023-02-02T01:27:09;5.68;;;2.28;;
29934;SDS011;19905;53.370;-6.314;2023-02-02T01:29:37;6.90;;;2.42;;
29934;SDS011;19905;53.370;-6.314;2023-02-02T01:32:06;6.18;;;2.15;;
29934;SDS011;19905;53.370;-6.314;2023-02-02T01:34:34;9.52;;;2.85;;
29934;SDS011;19905;53.370;-6.314;2023-02-02T01:37:07;6.72;;;2.42;;
29934;SDS011;19905;53.370;-6.314;2023-02-02T01:39:37;5.75;;;2.00;;
29934;SDS011;19905;53.370;-6.314;2023-02-02T01:42:10;6.97;;;2.38;;
29934;SDS011;19905;53.370;-6.314;2023-02-02T01:47:45;7.25;;;2.30;;
29934;SDS011;19905;53.370;-6.314;2023-02-02T01:50:16;8.95;;;2.25;;
29934;SDS011;19905;53.370;-6.314;2023-02-02T01:52:48;5.72;;;2.17;;
29934;SDS011;19905;53.370;-6.314;2023-02-02T01:55:20;6.47;;;2.38;;
29934;SDS011;19905;53.370;-6.314;2023-02-02T01:57:58;4.72;;;2.08;;
29934;SDS011;19905;53.370;-6.314;2023-02-02T02:00:32;3.88;;;2.17;;
29934;SDS011;19905;53.370;-6.314;2023-02-02T02:03:01;5.28;;;2.65;;
29934;SDS011;19905;53.370;-6.314;2023-02-02T02:05:34;5.07;;;2.30;;
29934;SDS011;19905;53.370;-6.314;2023-02-02T02:08:11;7.13;;;2.53;;
29934;SDS011;19905;53.370;-6.314;2023-02-02T02:10:42;4.45;;;1.65;;
29934;SDS011;19905;53.370;-6.314;2023-02-02T02:13:13;11.23;;;2.20;;
29934;SDS011;19905;53.370;-6.314;2023-02-02T02:15:46;8.00;;;2.80;;
29934;SDS011;19905;53.370;-6.314;2023-02-02T02:18:41;5.72;;;2.67;;
29934;SDS011;19905;53.370;-6.314;2023-02-02T02:21:31;6.50;;;2.78;;
29934;SDS011;19905;53.370;-6.314;2023-02-02T02:34:25;7.55;;;2.75;;
29934;SDS011;19905;53.370;-6.314;2023-02-02T02:37:05;5.43;;;2.40;;
29934;SDS011;19905;53.370;-6.314;2023-02-02T02:39:38;9.18;;;2.63;;
29934;SDS011;19905;53.370;-6.314;2023-02-02T02:42:13;5.10;;;3.38;;
29934;SDS011;19905;53.370;-6.314;2023-02-02T02:44:46;8.15;;;2.47;;
29934;SDS011;19905;53.370;-6.314;2023-02-02T02:47:18;10.27;;;3.05;;
29934;SDS011;19905;53.370;-6.314;2023-02-02T02:49:48;5.45;;;2.50;;
29934;SDS011;19905;53.370;-6.314;2023-02-02T02:52:17;6.60;;;3.13;;
29934;SDS011;19905;53.370;-6.314;2023-02-02T02:54:46;8.73;;;2.38;;
29934;SDS011;19905;53.370;-6.314;2023-02-02T02:57:27;6.13;;;2.65;;
29934;SDS011;19905;53.370;-6.314;2023-02-02T03:00:13;9.32;;;2.80;;
29934;SDS011;19905;53.370;-6.314;2023-02-02T03:02:56;7.72;;;2.50;;
29934;SDS011;19905;53.370;-6.314;2023-02-02T03:05:34;9.63;;;2.40;;
29934;SDS011;19905;53.370;-6.314;2023-02-02T03:08:12;6.20;;;2.35;;
29934;SDS011;19905;53.370;-6.314;2023-02-02T03:10:46;6.68;;;2.72;;
29934;SDS011;19905;53.370;-6.314;2023-02-02T03:13:16;8.32;;;2.47;;
29934;SDS011;19905;53.370;-6.314;2023-02-02T03:15:45;6.28;;;2.10;;
29934;SDS011;19905;53.370;-6.314;2023-02-02T03:18:16;7.07;;;2.05;;
29934;SDS011;19905;53.370;-6.314;2023-02-02T03:20:48;7.57;;;2.10;;
29934;SDS011;19905;53.370;-6.314;2023-02-02T03:23:16;9.05;;;2.38;;
29934;SDS011;19905;53.370;-6.314;2023-02-02T03:25:45;5.25;;;1.80;;
29934;SDS011;19905;53.370;-6.314;2023-02-02T03:28:14;4.60;;;1.90;;
29934;SDS011;19905;53.370;-6.314;2023-02-02T03:30:44;4.28;;;2.05;;
29934;SDS011;19905;53.370;-6.314;2023-02-02T03:33:17;4.95;;;2.05;;
29934;SDS011;19905;53.370;-6.314;2023-02-02T03:35:46;5.35;;;2.05;;
29934;SDS011;19905;53.370;-6.314;2023-02-02T03:38:14;6.70;;;2.17;;
29934;SDS011;19905;53.370;-6.314;2023-02-02T03:40:43;6.28;;;2.35;;
29934;SDS011;19905;53.370;-6.314;2023-02-02T03:43:12;5.45;;;2.42;;
29934;SDS011;19905;53.370;-6.314;2023-02-02T03:45:40;2.78;;;1.80;;
29934;SDS011;19905;53.370;-6.314;2023-02-02T03:48:11;5.90;;;2.50;;
29934;SDS011;19905;53.370;-6.314;2023-02-02T03:50:41;6.00;;;2.60;;
29934;SDS011;19905;53.370;-6.314;2023-02-02T03:53:10;7.50;;;2.13;;
29934;SDS011;19905;53.370;-6.314;2023-02-02T03:55:39;6.75;;;2.40;;
29934;SDS011;19905;53.370;-6.314;2023-02-02T03:58:08;5.10;;;2.15;;
29934;SDS011;19905;53.370;-6.314;2023-02-02T04:00:37;5.15;;;2.13;;
29934;SDS011;19905;53.370;-6.314;2023-02-02T04:03:05;4.47;;;1.80;;
29934;SDS011;19905;53.370;-6.314;2023-02-02T04:05:34;2.33;;;1.30;;
29934;SDS011;19905;53.370;-6.314;2023-02-02T04:08:04;2.47;;;1.20;;
29934;SDS011;19905;53.370;-6.314;2023-02-02T04:10:33;7.90;;;1.45;;
29934;SDS011;19905;53.370;-6.314;2023-02-02T04:13:02;5.45;;;1.45;;
29934;SDS011;19905;53.370;-6.314;2023-02-02T04:15:31;5.22;;;1.35;;
29934;SDS011;19905;53.370;-6.314;2023-02-02T04:18:00;5.38;;;1.30;;
29934;SDS011;19905;53.370;-6.314;2023-02-02T04:20:29;5.35;;;1.23;;
29934;SDS011;19905;53.370;-6.314;2023-02-02T04:22:58;4.75;;;1.08;;
29934;SDS011;19905;53.370;-6.314;2023-02-02T04:25:28;5.15;;;1.17;;
29934;SDS011;19905;53.370;-6.314;2023-02-02T04:27:58;4.35;;;0.90;;
29934;SDS011;19905;53.370;-6.314;2023-02-02T04:30:27;6.20;;;1.30;;
29934;SDS011;19905;53.370;-6.314;2023-02-02T04:32:56;3.38;;;1.17;;
29934;SDS011;19905;53.370;-6.314;2023-02-02T04:35:25;8.75;;;1.48;;
29934;SDS011;19905;53.370;-6.314;2023-02-02T04:37:54;8.95;;;1.20;;
29934;SDS011;19905;53.370;-6.314;2023-02-02T04:40:22;4.82;;;1.73;;
29934;SDS011;19905;53.370;-6.314;2023-02-02T04:42:53;14.23;;;1.55;;
29934;SDS011;19905;53.370;-6.314;2023-02-02T04:45:21;5.50;;;1.35;;
29934;SDS011;19905;53.370;-6.314;2023-02-02T04:47:52;8.43;;;1.75;;
29934;SDS011;19905;53.370;-6.314;2023-02-02T04:50:21;6.30;;;1.58;;
29934;SDS011;19905;53.370;-6.314;2023-02-02T04:52:50;6.93;;;1.70;;
29934;SDS011;19905;53.370;-6.314;2023-02-02T04:55:19;11.63;;;1.92;;
29934;SDS011;19905;53.370;-6.314;2023-02-02T04:57:48;4.85;;;1.60;;
29934;SDS011;19905;53.370;-6.314;2023-02-02T05:00:19;5.28;;;1.50;;
29934;SDS011;19905;53.370;-6.314;2023-02-02T05:02:47;8.88;;;1.50;;
29934;SDS011;19905;53.370;-6.314;2023-02-02T05:05:16;7.07;;;1.70;;
29934;SDS011;19905;53.370;-6.314;2023-02-02T05:07:46;8.30;;;1.30;;
29934;SDS011;19905;53.370;-6.314;2023-02-02T05:10:14;9.65;;;1.55;;
29934;SDS011;19905;53.370;-6.314;2023-02-02T05:12:43;7.38;;;1.50;;
29934;SDS011;19905;53.370;-6.314;2023-02-02T05:15:12;4.00;;;1.60;;
29934;SDS011;19905;53.370;-6.314;2023-02-02T05:17:42;15.38;;;1.60;;
29934;SDS011;19905;53.370;-6.314;2023-02-02T05:20:11;7.00;;;1.80;;
29934;SDS011;19905;53.370;-6.314;2023-02-02T05:22:40;6.38;;;1.42;;
29934;SDS011;19905;53.370;-6.314;2023-02-02T05:25:09;4.63;;;1.13;;
29934;SDS011;19905;53.370;-6.314;2023-02-02T05:27:38;5.07;;;1.00;;
29934;SDS011;19905;53.370;-6.314;2023-02-02T05:30:08;5.28;;;1.10;;
29934;SDS011;19905;53.370;-6.314;2023-02-02T05:32:39;4.35;;;0.85;;
29934;SDS011;19905;53.370;-6.314;2023-02-02T05:35:10;6.45;;;1.20;;
29934;SDS011;19905;53.370;-6.314;2023-02-02T05:37:41;6.07;;;1.00;;
29934;SDS011;19905;53.370;-6.314;2023-02-02T05:40:11;3.80;;;0.80;;
29934;SDS011;19905;53.370;-6.314;2023-02-02T05:42:40;2.22;;;0.93;;
29934;SDS011;19905;53.370;-6.314;2023-02-02T05:45:09;2.83;;;0.80;;
29934;SDS011;19905;53.370;-6.314;2023-02-02T05:47:38;6.13;;;1.23;;
29934;SDS011;19905;53.370;-6.314;2023-02-02T05:50:09;3.88;;;0.95;;
29934;SDS011;19905;53.370;-6.314;2023-02-02T05:52:37;3.97;;;1.10;;
29934;SDS011;19905;53.370;-6.314;2023-02-02T05:55:08;4.85;;;1.35;;
29934;SDS011;19905;53.370;-6.314;2023-02-02T05:57:37;4.45;;;0.80;;
29934;SDS011;19905;53.370;-6.314;2023-02-02T06:00:06;5.90;;;1.08;;
29934;SDS011;19905;53.370;-6.314;2023-02-02T06:02:36;6.20;;;1.00;;
29934;SDS011;19905;53.370;-6.314;2023-02-02T06:05:05;6.68;;;1.23;;
29934;SDS011;19905;53.370;-6.314;2023-02-02T06:07:35;4.57;;;1.17;;
29934;SDS011;19905;53.370;-6.314;2023-02-02T06:10:04;5.55;;;1.05;;
29934;SDS011;19905;53.370;-6.314;2023-02-02T06:12:33;5.85;;;1.33;;
29934;SDS011;19905;53.370;-6.314;2023-02-02T06:15:01;7.63;;;1.10;;
29934;SDS011;19905;53.370;-6.314;2023-02-02T06:17:31;3.53;;;1.10;;
29934;SDS011;19905;53.370;-6.314;2023-02-02T06:20:00;2.63;;;1.00;;
29934;SDS011;19905;53.370;-6.314;2023-02-02T06:22:31;4.25;;;1.10;;
29934;SDS011;19905;53.370;-6.314;2023-02-02T06:25:01;4.15;;;0.80;;
29934;SDS011;19905;53.370;-6.314;2023-02-02T06:27:33;3.90;;;1.00;;
29934;SDS011;19905;53.370;-6.314;2023-02-02T06:30:02;5.18;;;0.90;;
29934;SDS011;19905;53.370;-6.314;2023-02-02T06:32:31;1.02;;;0.50;;
29934;SDS011;19905;53.370;-6.314;2023-02-02T06:34:59;1.85;;;0.82;;
29934;SDS011;19905;53.370;-6.314;2023-02-02T06:37:28;3.13;;;0.82;;
29934;SDS011;19905;53.370;-6.314;2023-02-02T06:39:57;5.93;;;1.10;;
29934;SDS011;19905;53.370;-6.314;2023-02-02T06:42:27;7.20;;;1.40;;
29934;SDS011;19905;53.370;-6.314;2023-02-02T06:44:56;3.03;;;0.70;;
29934;SDS011;19905;53.370;-6.314;2023-02-02T06:47:25;4.93;;;0.90;;
29934;SDS011;19905;53.370;-6.314;2023-02-02T06:49:54;6.00;;;0.70;;
29934;SDS011;19905;53.370;-6.314;2023-02-02T06:52:22;3.55;;;0.98;;
29934;SDS011;19905;53.370;-6.314;2023-02-02T06:54:51;2.78;;;0.80;;
29934;SDS011;19905;53.370;-6.314;2023-02-02T06:57:19;3.15;;;0.80;;
29934;SDS011;19905;53.370;-6.314;2023-02-02T06:59:49;1.23;;;0.57;;
29934;SDS011;19905;53.370;-6.314;2023-02-02T07:02:18;1.73;;;0.68;;
29934;SDS011;19905;53.370;-6.314;2023-02-02T07:04:50;6.95;;;0.73;;
29934;SDS011;19905;53.370;-6.314;2023-02-02T07:07:18;3.75;;;0.90;;
29934;SDS011;19905;53.370;-6.314;2023-02-02T07:09:46;3.05;;;0.80;;
29934;SDS011;19905;53.370;-6.314;2023-02-02T07:12:24;4.72;;;1.00;;
29934;SDS011;19905;53.370;-6.314;2023-02-02T07:14:54;4.38;;;1.08;;
29934;SDS011;19905;53.370;-6.314;2023-02-02T07:17:25;3.80;;;0.73;;
29934;SDS011;19905;53.370;-6.314;2023-02-02T07:19:53;5.07;;;1.00;;
29934;SDS011;19905;53.370;-6.314;2023-02-02T07:22:22;3.67;;;0.88;;
29934;SDS011;19905;53.370;-6.314;2023-02-02T07:24:51;5.65;;;1.42;;
29934;SDS011;19905;53.370;-6.314;2023-02-02T07:27:19;5.28;;;1.05;;
29934;SDS011;19905;53.370;-6.314;2023-02-02T07:29:48;6.20;;;0.80;;
29934;SDS011;19905;53.370;-6.314;2023-02-02T07:32:18;1.58;;;0.75;;
29934;SDS011;19905;53.370;-6.314;2023-02-02T07:34:48;2.08;;;0.82;;
29934;SDS011;19905;53.370;-6.314;2023-02-02T07:37:17;3.88;;;0.70;;
29934;SDS011;19905;53.370;-6.314;2023-02-02T07:39:45;4.00;;;0.98;;
29934;SDS011;19905;53.370;-6.314;2023-02-02T07:42:14;5.72;;;0.82;;
29934;SDS011;19905;53.370;-6.314;2023-02-02T07:44:42;3.28;;;0.75;;
29934;SDS011;19905;53.370;-6.314;2023-02-02T07:47:11;6.20;;;0.75;;
29934;SDS011;19905;53.370;-6.314;2023-02-02T07:49:41;5.03;;;1.15;;
29934;SDS011;19905;53.370;-6.314;2023-02-02T07:52:11;4.05;;;0.73;;
29934;SDS011;19905;53.370;-6.314;2023-02-02T07:54:41;4.03;;;0.75;;
29934;SDS011;19905;53.370;-6.314;2023-02-02T07:57:09;3.10;;;0.73;;
29934;SDS011;19905;53.370;-6.314;2023-02-02T07:59:39;5.93;;;0.88;;
29934;SDS011;19905;53.370;-6.314;2023-02-02T08:02:08;7.72;;;1.00;;
29934;SDS011;19905;53.370;-6.314;2023-02-02T08:04:37;5.20;;;0.80;;
29934;SDS011;19905;53.370;-6.314;2023-02-02T08:07:07;7.60;;;0.88;;
29934;SDS011;19905;53.370;-6.314;2023-02-02T08:09:36;3.88;;;0.80;;
29934;SDS011;19905;53.370;-6.314;2023-02-02T08:12:05;4.38;;;0.98;;
29934;SDS011;19905;53.370;-6.314;2023-02-02T08:14:34;6.22;;;0.93;;
29934;SDS011;19905;53.370;-6.314;2023-02-02T08:17:03;5.88;;;1.23;;
29934;SDS011;19905;53.370;-6.314;2023-02-02T08:19:31;3.22;;;0.95;;
29934;SDS011;19905;53.370;-6.314;2023-02-02T08:22:00;9.48;;;1.10;;
29934;SDS011;19905;53.370;-6.314;2023-02-02T08:24:30;5.72;;;1.35;;
29934;SDS011;19905;53.370;-6.314;2023-02-02T08:26:59;3.88;;;0.88;;
29934;SDS011;19905;53.370;-6.314;2023-02-02T08:29:30;3.45;;;0.75;;
29934;SDS011;19905;53.370;-6.314;2023-02-02T08:32:09;5.65;;;0.93;;
29934;SDS011;19905;53.370;-6.314;2023-02-02T08:34:37;5.95;;;0.82;;
29934;SDS011;19905;53.370;-6.314;2023-02-02T08:37:07;5.20;;;1.25;;
29934;SDS011;19905;53.370;-6.314;2023-02-02T08:39:38;4.72;;;0.98;;
29934;SDS011;19905;53.370;-6.314;2023-02-02T08:42:07;4.60;;;0.98;;
29934;SDS011;19905;53.370;-6.314;2023-02-02T08:44:36;4.15;;;1.05;;
29934;SDS011;19905;53.370;-6.314;2023-02-02T08:47:27;8.73;;;1.13;;
29934;SDS011;19905;53.370;-6.314;2023-02-02T08:49:56;5.40;;;1.20;;
29934;SDS011;19905;53.370;-6.314;2023-02-02T08:52:25;4.65;;;0.90;;
29934;SDS011;19905;53.370;-6.314;2023-02-02T08:58:15;5.38;;;1.10;;
29934;SDS011;19905;53.370;-6.314;2023-02-02T09:00:44;3.67;;;0.73;;
29934;SDS011;19905;53.370;-6.314;2023-02-02T09:03:13;4.95;;;0.95;;
29934;SDS011;19905;53.370;-6.314;2023-02-02T09:05:45;4.90;;;1.00;;
29934;SDS011;19905;53.370;-6.314;2023-02-02T09:08:13;7.82;;;1.00;;
29934;SDS011;19905;53.370;-6.314;2023-02-02T09:10:41;5.63;;;0.90;;
29934;SDS011;19905;53.370;-6.314;2023-02-02T09:13:10;7.45;;;1.23;;
29934;SDS011;19905;53.370;-6.314;2023-02-02T09:15:40;8.95;;;1.42;;
29934;SDS011;19905;53.370;-6.314;2023-02-02T09:18:10;4.45;;;1.05;;
29934;SDS011;19905;53.370;-6.314;2023-02-02T09:20:40;6.70;;;1.38;;
29934;SDS011;19905;53.370;-6.314;2023-02-02T09:23:11;4.05;;;0.90;;
29934;SDS011;19905;53.370;-6.314;2023-02-02T09:25:40;6.55;;;1.15;;
29934;SDS011;19905;53.370;-6.314;2023-02-02T09:28:11;6.78;;;1.23;;
29934;SDS011;19905;53.370;-6.314;2023-02-02T09:30:41;4.88;;;1.05;;
29934;SDS011;19905;53.370;-6.314;2023-02-02T09:33:09;8.52;;;2.05;;
29934;SDS011;19905;53.370;-6.314;2023-02-02T09:35:39;4.18;;;1.00;;
29934;SDS011;19905;53.370;-6.314;2023-02-02T09:38:07;11.98;;;1.40;;
29934;SDS011;19905;53.370;-6.314;2023-02-02T09:40:39;4.80;;;1.02;;
29934;SDS011;19905;53.370;-6.314;2023-02-02T09:43:13;8.70;;;1.42;;
29934;SDS011;19905;53.370;-6.314;2023-02-02T09:45:57;10.52;;;1.23;;
29934;SDS011;19905;53.370;-6.314;2023-02-02T09:48:37;4.10;;;0.98;;
29934;SDS011;19905;53.370;-6.314;2023-02-02T09:51:14;3.88;;;0.93;;
29934;SDS011;19905;53.370;-6.314;2023-02-02T09:53:49;3.05;;;0.90;;
29934;SDS011;19905;53.370;-6.314;2023-02-02T09:56:23;7.00;;;1.20;;
29934;SDS011;19905;53.370;-6.314;2023-02-02T09:58:58;7.85;;;1.10;;
29934;SDS011;19905;53.370;-6.314;2023-02-02T10:01:51;6.40;;;1.23;;
29934;SDS011;19905;53.370;-6.314;2023-02-02T10:04:24;3.72;;;0.75;;
29934;SDS011;19905;53.370;-6.314;2023-02-02T10:07:04;4.63;;;0.80;;
29934;SDS011;19905;53.370;-6.314;2023-02-02T10:09:38;7.07;;;0.95;;
29934;SDS011;19905;53.370;-6.314;2023-02-02T10:12:18;5.05;;;1.23;;
29934;SDS011;19905;53.370;-6.314;2023-02-02T10:14:55;7.70;;;1.20;;
29934;SDS011;19905;53.370;-6.314;2023-02-02T10:17:36;7.45;;;1.05;;
29934;SDS011;19905;53.370;-6.314;2023-02-02T10:20:21;6.30;;;1.13;;
29934;SDS011;19905;53.370;-6.314;2023-02-02T10:22:58;7.50;;;0.95;;
29934;SDS011;19905;53.370;-6.314;2023-02-02T10:25:35;9.90;;;1.17;;
29934;SDS011;19905;53.370;-6.314;2023-02-02T10:28:10;6.47;;;1.00;;
29934;SDS011;19905;53.370;-6.314;2023-02-02T10:30:46;4.93;;;1.05;;
29934;SDS011;19905;53.370;-6.314;2023-02-02T10:33:26;1.92;;;0.73;;
29934;SDS011;19905;53.370;-6.314;2023-02-02T10:36:07;6.25;;;0.90;;
29934;SDS011;19905;53.370;-6.314;2023-02-02T10:38:45;3.85;;;0.90;;
29934;SDS011;19905;53.370;-6.314;2023-02-02T10:41:24;3.20;;;0.80;;
29934;SDS011;19905;53.370;-6.314;2023-02-02T10:44:06;4.30;;;0.88;;
29934;SDS011;19905;53.370;-6.314;2023-02-02T10:46:44;4.78;;;0.73;;
29934;SDS011;19905;53.370;-6.314;2023-02-02T10:49:23;6.43;;;1.27;;
29934;SDS011;19905;53.370;-6.314;2023-02-02T10:51:58;5.72;;;1.30;;
29934;SDS011;19905;53.370;-6.314;2023-02-02T10:54:38;5.88;;;1.40;;
29934;SDS011;19905;53.370;-6.314;2023-02-02T10:57:35;3.05;;;1.20;;
29934;SDS011;19905;53.370;-6.314;2023-02-02T11:00:14;5.45;;;1.20;;
29934;SDS011;19905;53.370;-6.314;2023-02-02T11:02:49;4.07;;;1.00;;
29934;SDS011;19905;53.370;-6.314;2023-02-02T11:05:22;5.35;;;1.17;;
29934;SDS011;19905;53.370;-6.314;2023-02-02T11:08:13;7.72;;;1.00;;
29934;SDS011;19905;53.370;-6.314;2023-02-02T11:10:46;6.88;;;1.27;;
29934;SDS011;19905;53.370;-6.314;2023-02-02T11:13:20;5.93;;;1.13;;
29934;SDS011;19905;53.370;-6.314;2023-02-02T11:21:57;3.58;;;0.88;;
29934;SDS011;19905;53.370;-6.314;2023-02-02T11:24:28;4.05;;;0.93;;
29934;SDS011;19905;53.370;-6.314;2023-02-02T11:27:02;2.63;;;0.73;;
29934;SDS011;19905;53.370;-6.314;2023-02-02T11:29:40;4.35;;;0.85;;
29934;SDS011;19905;53.370;-6.314;2023-02-02T11:32:17;3.20;;;0.85;;
29934;SDS011;19905;53.370;-6.314;2023-02-02T11:34:51;3.58;;;0.93;;
29934;SDS011;19905;53.370;-6.314;2023-02-02T11:37:55;5.30;;;0.80;;
29934;SDS011;19905;53.370;-6.314;2023-02-02T11:40:28;3.30;;;1.02;;
29934;SDS011;19905;53.370;-6.314;2023-02-02T11:42:59;2.28;;;0.60;;
29934;SDS011;19905;53.370;-6.314;2023-02-02T11:45:34;3.38;;;1.08;;
29934;SDS011;19905;53.370;-6.314;2023-02-02T11:48:05;3.72;;;0.85;;
29934;SDS011;19905;53.370;-6.314;2023-02-02T11:50:44;2.75;;;0.70;;
29934;SDS011;19905;53.370;-6.314;2023-02-02T11:53:22;5.22;;;0.82;;
29934;SDS011;19905;53.370;-6.314;2023-02-02T11:55:54;3.33;;;0.60;;
29934;SDS011;19905;53.370;-6.314;2023-02-02T11:58:25;3.90;;;0.80;;
29934;SDS011;19905;53.370;-6.314;2023-02-02T12:00:56;3.55;;;0.80;;
29934;SDS011;19905;53.370;-6.314;2023-02-02T12:03:32;5.53;;;1.20;;
29934;SDS011;19905;53.370;-6.314;2023-02-02T12:06:16;6.65;;;0.70;;
29934;SDS011;19905;53.370;-6.314;2023-02-02T12:08:48;4.18;;;0.70;;
29934;SDS011;19905;53.370;-6.314;2023-02-02T12:11:22;4.97;;;0.60;;
29934;SDS011;19905;53.370;-6.314;2023-02-02T12:14:16;2.72;;;0.70;;
29934;SDS011;19905;53.370;-6.314;2023-02-02T12:17:00;2.78;;;0.60;;
29934;SDS011;19905;53.370;-6.314;2023-02-02T12:19:43;4.97;;;0.70;;
29934;SDS011;19905;53.370;-6.314;2023-02-02T12:22:29;3.88;;;0.90;;
29934;SDS011;19905;53.370;-6.314;2023-02-02T12:25:20;4.30;;;0.90;;
29934;SDS011;19905;53.370;-6.314;2023-02-02T12:28:00;2.85;;;0.63;;
29934;SDS011;19905;53.370;-6.314;2023-02-02T12:30:38;4.68;;;0.65;;
29934;SDS011;19905;53.370;-6.314;2023-02-02T12:33:17;4.95;;;1.00;;
29934;SDS011;19905;53.370;-6.314;2023-02-02T12:39:20;4.85;;;0.90;;
29934;SDS011;19905;53.370;-6.314;2023-02-02T12:42:09;4.45;;;0.70;;
29934;SDS011;19905;53.370;-6.314;2023-02-02T12:44:58;6.13;;;0.88;;
29934;SDS011;19905;53.370;-6.314;2023-02-02T12:47:43;2.63;;;0.80;;
29934;SDS011;19905;53.370;-6.314;2023-02-02T12:50:25;3.90;;;0.85;;
29934;SDS011;19905;53.370;-6.314;2023-02-02T12:53:06;3.88;;;0.90;;
29934;SDS011;19905;53.370;-6.314;2023-02-02T12:55:49;4.28;;;0.80;;
29934;SDS011;19905;53.370;-6.314;2023-02-02T12:58:29;5.75;;;1.02;;
29934;SDS011;19905;53.370;-6.314;2023-02-02T13:01:14;5.63;;;1.10;;
29934;SDS011;19905;53.370;-6.314;2023-02-02T13:03:59;5.30;;;1.05;;
29934;SDS011;19905;53.370;-6.314;2023-02-02T13:06:46;3.22;;;0.73;;
29934;SDS011;19905;53.370;-6.314;2023-02-02T13:09:37;6.13;;;0.82;;
29934;SDS011;19905;53.370;-6.314;2023-02-02T13:12:13;4.47;;;1.00;;
29934;SDS011;19905;53.370;-6.314;2023-02-02T13:14:47;2.05;;;0.70;;
29934;SDS011;19905;53.370;-6.314;2023-02-02T13:17:22;6.22;;;0.80;;
29934;SDS011;19905;53.370;-6.314;2023-02-02T13:19:56;5.32;;;1.10;;
29934;SDS011;19905;53.370;-6.314;2023-02-02T13:22:33;3.22;;;0.80;;
29934;SDS011;19905;53.370;-6.314;2023-02-02T13:25:08;4.22;;;1.10;;
29934;SDS011;19905;53.370;-6.314;2023-02-02T13:27:51;4.93;;;1.05;;
29934;SDS011;19905;53.370;-6.314;2023-02-02T13:30:24;4.50;;;0.85;;
29934;SDS011;19905;53.370;-6.314;2023-02-02T13:32:59;6.07;;;1.30;;
29934;SDS011;19905;53.370;-6.314;2023-02-02T13:35:30;5.38;;;1.00;;
29934;SDS011;19905;53.370;-6.314;2023-02-02T13:38:05;4.70;;;1.27;;
29934;SDS011;19905;53.370;-6.314;2023-02-02T13:40:42;4.60;;;0.95;;
29934;SDS011;19905;53.370;-6.314;2023-02-02T13:43:16;3.55;;;1.00;;
29934;SDS011;19905;53.370;-6.314;2023-02-02T13:46:05;7.03;;;0.90;;
29934;SDS011;19905;53.370;-6.314;2023-02-02T13:48:48;4.97;;;1.00;;
29934;SDS011;19905;53.370;-6.314;2023-02-02T13:51:31;4.85;;;1.08;;
29934;SDS011;19905;53.370;-6.314;2023-02-02T13:57:44;1.80;;;0.63;;
29934;SDS011;19905;53.370;-6.314;2023-02-02T14:00:32;4.72;;;1.30;;
29934;SDS011;19905;53.370;-6.314;2023-02-02T14:03:05;8.43;;;1.10;;
29934;SDS011;19905;53.370;-6.314;2023-02-02T14:06:03;3.80;;;1.10;;
29934;SDS011;19905;53.370;-6.314;2023-02-02T14:08:35;3.92;;;0.90;;
29934;SDS011;19905;53.370;-6.314;2023-02-02T14:11:05;6.38;;;1.08;;
29934;SDS011;19905;53.370;-6.314;2023-02-02T14:13:36;1.92;;;0.80;;
29934;SDS011;19905;53.370;-6.314;2023-02-02T14:16:43;2.92;;;1.00;;
29934;SDS011;19905;53.370;-6.314;2023-02-02T14:19:45;6.43;;;1.60;;
29934;SDS011;19905;53.370;-6.314;2023-02-02T14:28:43;5.25;;;1.15;;
29934;SDS011;19905;53.370;-6.314;2023-02-02T14:31:26;3.15;;;0.95;;
29934;SDS011;19905;53.370;-6.314;2023-02-02T14:37:13;3.95;;;2.08;;
29934;SDS011;19905;53.370;-6.314;2023-02-02T14:39:57;4.93;;;1.23;;
29934;SDS011;19905;53.370;-6.314;2023-02-02T14:42:42;2.85;;;1.70;;
29934;SDS011;19905;53.370;-6.314;2023-02-02T14:45:38;3.25;;;1.20;;
29934;SDS011;19905;53.370;-6.314;2023-02-02T14:48:08;3.67;;;0.85;;
29934;SDS011;19905;53.370;-6.314;2023-02-02T14:50:45;6.03;;;1.00;;
29934;SDS011;19905;53.370;-6.314;2023-02-02T14:53:19;3.97;;;0.82;;
29934;SDS011;19905;53.370;-6.314;2023-02-02T14:55:52;7.00;;;0.90;;
29934;SDS011;19905;53.370;-6.314;2023-02-02T14:58:26;3.50;;;1.02;;
29934;SDS011;19905;53.370;-6.314;2023-02-02T15:01:03;7.43;;;1.35;;
29934;SDS011;19905;53.370;-6.314;2023-02-02T15:03:44;3.60;;;0.93;;
29934;SDS011;19905;53.370;-6.314;2023-02-02T15:06:27;6.68;;;1.38;;
29934;SDS011;19905;53.370;-6.314;2023-02-02T15:12:17;8.32;;;1.30;;
29934;SDS011;19905;53.370;-6.314;2023-02-02T15:14:54;8.98;;;1.17;;
29934;SDS011;19905;53.370;-6.314;2023-02-02T15:17:32;4.28;;;1.02;;
29934;SDS011;19905;53.370;-6.314;2023-02-02T15:20:11;6.35;;;1.08;;
29934;SDS011;19905;53.370;-6.314;2023-02-02T15:22:49;7.72;;;0.93;;
29934;SDS011;19905;53.370;-6.314;2023-02-02T15:25:25;4.82;;;0.80;;
29934;SDS011;19905;53.370;-6.314;2023-02-02T15:28:00;8.82;;;1.10;;
29934;SDS011;19905;53.370;-6.314;2023-02-02T15:30:37;4.88;;;1.10;;
29934;SDS011;19905;53.370;-6.314;2023-02-02T15:33:16;6.55;;;1.42;;
29934;SDS011;19905;53.370;-6.314;2023-02-02T15:35:51;8.73;;;1.35;;
29934;SDS011;19905;53.370;-6.314;2023-02-02T15:38:22;6.10;;;0.93;;
29934;SDS011;19905;53.370;-6.314;2023-02-02T15:41:03;6.25;;;1.50;;
29934;SDS011;19905;53.370;-6.314;2023-02-02T15:43:34;8.70;;;1.52;;
29934;SDS011;19905;53.370;-6.314;2023-02-02T15:46:04;6.13;;;1.23;;
29934;SDS011;19905;53.370;-6.314;2023-02-02T15:48:36;4.07;;;0.98;;
29934;SDS011;19905;53.370;-6.314;2023-02-02T15:51:06;4.80;;;1.42;;
29934;SDS011;19905;53.370;-6.314;2023-02-02T15:53:48;6.63;;;1.85;;